Twillingate, Canada
Current Conditions -  °F | °C
As of 7:07 AM on Thursday 29 Jan 2015 (Local Time) from CYQX Reporting Station
Broken Clouds Broken Clouds  
Wind Chill: 27°   Ceiling: 1400
Heat Index: 36°   Visibility: 15mi
Dew Point: 36°   Wind: 14mph
Humidity: 100%   Direction: 220°SW
Pressure: 29.73"   Gusts: 20mph
Location:  49.66°N, 54.78°W
Report Text: CYQX 291007Z 22012G17KT 15SM FEW005 BKN014 BKN035 02/02 A2973 RMK SF1SC4SC2 SLP073
Loading
Personal Weather Stations






























Interactive Weather Map New forecast layout! Learn more

10-Day Weather Forecast

Advertisements
Track Severe Weather on mobile